sensor_id;sensor_type;location;lat;lon;timestamp;pressure;altitude;pressure_sealevel;temperature;humidity
23176;BME280;19910;42.652;23.332;2023-03-26T00:01:22;94141.47;;;10.10;76.10
23176;BME280;19910;42.652;23.332;2023-03-26T00:03:51;94140.31;;;9.98;76.65
23176;BME280;19910;42.652;23.332;2023-03-26T00:06:20;94146.06;;;9.97;76.95
23176;BME280;19910;42.652;23.332;2023-03-26T00:08:48;94157.44;;;9.90;77.38
23176;BME280;19910;42.652;23.332;2023-03-26T00:11:17;94155.38;;;9.87;77.62
23176;BME280;19910;42.652;23.332;2023-03-26T00:13:45;94157.41;;;9.78;77.79
23176;BME280;19910;42.652;23.332;2023-03-26T00:16:16;94150.88;;;9.79;78.15
23176;BME280;19910;42.652;23.332;2023-03-26T00:18:45;94152.66;;;9.75;78.21
23176;BME280;19910;42.652;23.332;2023-03-26T00:21:14;94141.38;;;9.73;78.34
23176;BME280;19910;42.652;23.332;2023-03-26T00:23:42;94153.31;;;9.72;78.77
23176;BME280;19910;42.652;23.332;2023-03-26T00:26:09;94140.56;;;9.60;79.20
23176;BME280;19910;42.652;23.332;2023-03-26T00:28:38;94135.41;;;9.68;78.86
23176;BME280;19910;42.652;23.332;2023-03-26T00:31:08;94144.31;;;9.68;79.31
23176;BME280;19910;42.652;23.332;2023-03-26T00:33:36;94126.50;;;9.67;78.69
23176;BME280;19910;42.652;23.332;2023-03-26T00:36:09;94126.69;;;9.62;78.57
23176;BME280;19910;42.652;23.332;2023-03-26T00:38:39;94123.78;;;9.67;78.19
23176;BME280;19910;42.652;23.332;2023-03-26T00:41:07;94110.75;;;9.69;76.98
23176;BME280;19910;42.652;23.332;2023-03-26T00:43:42;94109.38;;;9.75;76.20
23176;BME280;19910;42.652;23.332;2023-03-26T00:46:10;94118.88;;;9.81;76.02
23176;BME280;19910;42.652;23.332;2023-03-26T00:48:36;94114.78;;;9.75;76.13
23176;BME280;19910;42.652;23.332;2023-03-26T00:51:09;94124.94;;;9.78;76.26
23176;BME280;19910;42.652;23.332;2023-03-26T00:53:36;94112.09;;;9.75;76.11
23176;BME280;19910;42.652;23.332;2023-03-26T00:56:03;94118.94;;;9.73;76.38
23176;BME280;19910;42.652;23.332;2023-03-26T00:58:31;94119.28;;;9.71;76.52
23176;BME280;19910;42.652;23.332;2023-03-26T01:01:00;94122.03;;;9.83;74.61
23176;BME280;19910;42.652;23.332;2023-03-26T01:03:30;94115.47;;;9.84;74.48
23176;BME280;19910;42.652;23.332;2023-03-26T01:05:59;94128.25;;;9.84;74.54
23176;BME280;19910;42.652;23.332;2023-03-26T01:08:31;94120.03;;;9.92;73.89
23176;BME280;19910;42.652;23.332;2023-03-26T01:11:02;94121.34;;;9.86;74.16
23176;BME280;19910;42.652;23.332;2023-03-26T01:13:34;94129.78;;;9.85;74.33
23176;BME280;19910;42.652;23.332;2023-03-26T01:16:01;94126.75;;;9.86;74.39
23176;BME280;19910;42.652;23.332;2023-03-26T01:18:31;94114.13;;;9.78;74.69
23176;BME280;19910;42.652;23.332;2023-03-26T01:21:07;94123.38;;;9.77;74.99
23176;BME280;19910;42.652;23.332;2023-03-26T01:23:44;94135.41;;;9.68;75.57
23176;BME280;19910;42.652;23.332;2023-03-26T01:26:23;94133.03;;;9.66;75.59
23176;BME280;19910;42.652;23.332;2023-03-26T01:28:54;94135.28;;;9.64;75.54
23176;BME280;19910;42.652;23.332;2023-03-26T01:31:29;94139.88;;;9.63;75.88
23176;BME280;19910;42.652;23.332;2023-03-26T01:34:06;94138.41;;;9.54;76.31
23176;BME280;19910;42.652;23.332;2023-03-26T01:36:41;94135.44;;;9.47;77.21
23176;BME280;19910;42.652;23.332;2023-03-26T01:39:15;94136.09;;;9.44;77.53
23176;BME280;19910;42.652;23.332;2023-03-26T01:41:47;94146.47;;;9.42;78.07
23176;BME280;19910;42.652;23.332;2023-03-26T01:44:21;94132.94;;;9.42;78.17
23176;BME280;19910;42.652;23.332;2023-03-26T01:46:50;94151.19;;;9.45;78.34
23176;BME280;19910;42.652;23.332;2023-03-26T01:49:18;94143.06;;;9.45;78.43
23176;BME280;19910;42.652;23.332;2023-03-26T01:51:45;94145.41;;;9.55;77.99
23176;BME280;19910;42.652;23.332;2023-03-26T01:54:15;94150.34;;;9.53;78.37
23176;BME280;19910;42.652;23.332;2023-03-26T01:56:52;94155.09;;;9.56;78.76
23176;BME280;19910;42.652;23.332;2023-03-26T01:59:45;94152.81;;;9.58;78.98
23176;BME280;19910;42.652;23.332;2023-03-26T02:02:23;94152.56;;;9.51;79.58
23176;BME280;19910;42.652;23.332;2023-03-26T02:04:55;94157.72;;;9.44;80.12
23176;BME280;19910;42.652;23.332;2023-03-26T02:07:29;94149.56;;;9.32;80.71
23176;BME280;19910;42.652;23.332;2023-03-26T02:10:06;94152.34;;;9.23;80.91
23176;BME280;19910;42.652;23.332;2023-03-26T02:12:36;94156.50;;;9.20;80.91
23176;BME280;19910;42.652;23.332;2023-03-26T02:15:04;94149.56;;;9.11;81.04
23176;BME280;19910;42.652;23.332;2023-03-26T02:17:31;94154.97;;;9.11;81.01
23176;BME280;19910;42.652;23.332;2023-03-26T02:19:57;94153.25;;;9.06;80.96
23176;BME280;19910;42.652;23.332;2023-03-26T02:22:30;94153.25;;;9.06;80.83
23176;BME280;19910;42.652;23.332;2023-03-26T02:24:57;94155.78;;;9.11;80.56
23176;BME280;19910;42.652;23.332;2023-03-26T02:27:23;94144.69;;;9.04;80.68
23176;BME280;19910;42.652;23.332;2023-03-26T02:29:52;94141.09;;;9.00;80.74
23176;BME280;19910;42.652;23.332;2023-03-26T02:32:18;94158.94;;;9.13;80.12
23176;BME280;19910;42.652;23.332;2023-03-26T02:34:45;94146.16;;;9.22;79.56
23176;BME280;19910;42.652;23.332;2023-03-26T02:37:12;94147.31;;;9.34;79.01
23176;BME280;19910;42.652;23.332;2023-03-26T02:39:38;94152.53;;;9.39;78.54
23176;BME280;19910;42.652;23.332;2023-03-26T02:42:06;94147.81;;;9.48;78.09
23176;BME280;19910;42.652;23.332;2023-03-26T02:44:32;94153.50;;;9.55;77.81
23176;BME280;19910;42.652;23.332;2023-03-26T02:47:00;94162.50;;;9.59;77.79
23176;BME280;19910;42.652;23.332;2023-03-26T02:49:27;94160.22;;;9.49;78.65
23176;BME280;19910;42.652;23.332;2023-03-26T02:51:54;94172.38;;;9.43;79.29
23176;BME280;19910;42.652;23.332;2023-03-26T02:54:21;94175.47;;;9.33;79.76
23176;BME280;19910;42.652;23.332;2023-03-26T02:56:48;94177.00;;;9.21;80.32
23176;BME280;19910;42.652;23.332;2023-03-26T02:59:15;94184.78;;;9.23;79.57
23176;BME280;19910;42.652;23.332;2023-03-26T03:01:42;94191.44;;;9.25;79.85
23176;BME280;19910;42.652;23.332;2023-03-26T03:04:11;94190.97;;;9.23;80.29
23176;BME280;19910;42.652;23.332;2023-03-26T03:06:39;94194.78;;;9.22;80.67
23176;BME280;19910;42.652;23.332;2023-03-26T03:09:07;94193.06;;;9.18;81.08
23176;BME280;19910;42.652;23.332;2023-03-26T03:11:34;94191.47;;;9.17;80.52
23176;BME280;19910;42.652;23.332;2023-03-26T03:14:01;94206.47;;;9.14;80.26
23176;BME280;19910;42.652;23.332;2023-03-26T03:16:28;94203.47;;;9.07;80.51
23176;BME280;19910;42.652;23.332;2023-03-26T03:18:55;94200.31;;;9.05;80.71
23176;BME280;19910;42.652;23.332;2023-03-26T03:21:25;94200.03;;;8.98;80.58
23176;BME280;19910;42.652;23.332;2023-03-26T03:23:52;94196.00;;;8.83;81.24
23176;BME280;19910;42.652;23.332;2023-03-26T03:26:21;94199.19;;;8.77;81.55
23176;BME280;19910;42.652;23.332;2023-03-26T03:28:52;94211.31;;;8.71;81.68
23176;BME280;19910;42.652;23.332;2023-03-26T03:31:20;94208.78;;;8.66;82.01
23176;BME280;19910;42.652;23.332;2023-03-26T03:33:47;94202.47;;;8.62;81.95
23176;BME280;19910;42.652;23.332;2023-03-26T03:36:14;94208.63;;;8.71;81.88
23176;BME280;19910;42.652;23.332;2023-03-26T03:38:44;94211.31;;;8.71;82.00
23176;BME280;19910;42.652;23.332;2023-03-26T03:41:10;94215.13;;;8.70;82.08
23176;BME280;19910;42.652;23.332;2023-03-26T03:43:37;94206.56;;;8.68;81.97
23176;BME280;19910;42.652;23.332;2023-03-26T03:46:04;94202.81;;;8.60;82.49
23176;BME280;19910;42.652;23.332;2023-03-26T03:48:31;94197.09;;;8.53;82.62
23176;BME280;19910;42.652;23.332;2023-03-26T03:51:02;94200.13;;;8.51;83.05
23176;BME280;19910;42.652;23.332;2023-03-26T03:53:30;94218.88;;;8.48;83.14
23176;BME280;19910;42.652;23.332;2023-03-26T03:56:03;94217.75;;;8.58;82.50
23176;BME280;19910;42.652;23.332;2023-03-26T03:58:34;94224.06;;;8.62;82.51
23176;BME280;19910;42.652;23.332;2023-03-26T04:01:01;94225.94;;;8.70;82.13
23176;BME280;19910;42.652;23.332;2023-03-26T04:03:29;94223.81;;;8.75;82.05
23176;BME280;19910;42.652;23.332;2023-03-26T04:05:56;94212.13;;;8.71;81.80
23176;BME280;19910;42.652;23.332;2023-03-26T04:08:23;94221.91;;;8.76;81.87
23176;BME280;19910;42.652;23.332;2023-03-26T04:10:50;94223.81;;;8.75;82.04
23176;BME280;19910;42.652;23.332;2023-03-26T04:13:18;94230.81;;;8.76;81.76
23176;BME280;19910;42.652;23.332;2023-03-26T04:15:45;94235.78;;;8.66;82.13
23176;BME280;19910;42.652;23.332;2023-03-26T04:18:12;94242.13;;;8.70;81.85
23176;BME280;19910;42.652;23.332;2023-03-26T04:20:41;94244.03;;;8.69;82.05
23176;BME280;19910;42.652;23.332;2023-03-26T04:23:10;94257.69;;;8.73;81.64
23176;BME280;19910;42.652;23.332;2023-03-26T04:25:39;94262.44;;;8.76;81.58
23176;BME280;19910;42.652;23.332;2023-03-26T04:28:07;94277.03;;;8.75;81.84
23176;BME280;19910;42.652;23.332;2023-03-26T04:30:37;94264.22;;;8.72;81.94
23176;BME280;19910;42.652;23.332;2023-03-26T04:33:09;94276.13;;;8.71;81.92
23176;BME280;19910;42.652;23.332;2023-03-26T04:35:40;94280.41;;;8.72;81.60
23176;BME280;19910;42.652;23.332;2023-03-26T04:38:10;94280.09;;;8.73;81.48
23176;BME280;19910;42.652;23.332;2023-03-26T04:40:37;94281.81;;;8.78;81.69
23176;BME280;19910;42.652;23.332;2023-03-26T04:43:04;94294.66;;;8.81;81.21
23176;BME280;19910;42.652;23.332;2023-03-26T04:45:30;94300.16;;;8.93;80.56
23176;BME280;19910;42.652;23.332;2023-03-26T04:47:58;94292.25;;;8.88;80.72
23176;BME280;19910;42.652;23.332;2023-03-26T04:50:26;94292.59;;;8.78;80.72
23176;BME280;19910;42.652;23.332;2023-03-26T04:52:54;94287.03;;;8.83;80.52
23176;BME280;19910;42.652;23.332;2023-03-26T04:55:24;94301.19;;;8.80;80.71
23176;BME280;19910;42.652;23.332;2023-03-26T04:57:55;94289.22;;;8.89;79.69
23176;BME280;19910;42.652;23.332;2023-03-26T05:00:24;94294.38;;;9.03;79.13
23176;BME280;19910;42.652;23.332;2023-03-26T05:02:52;94295.75;;;9.18;77.80
23176;BME280;19910;42.652;23.332;2023-03-26T05:05:23;94294.88;;;9.76;76.14
23176;BME280;19910;42.652;23.332;2023-03-26T05:07:51;94288.84;;;10.33;73.13
23176;BME280;19910;42.652;23.332;2023-03-26T05:10:19;94286.25;;;11.30;69.85
23176;BME280;19910;42.652;23.332;2023-03-26T05:12:49;94283.75;;;11.37;67.74
23176;BME280;19910;42.652;23.332;2023-03-26T05:15:16;94308.91;;;11.62;66.98
23176;BME280;19910;42.652;23.332;2023-03-26T05:17:43;94280.22;;;12.14;64.45
23176;BME280;19910;42.652;23.332;2023-03-26T05:20:17;94288.44;;;11.77;64.72
23176;BME280;19910;42.652;23.332;2023-03-26T05:22:46;94309.34;;;12.88;62.16
23176;BME280;19910;42.652;23.332;2023-03-26T05:25:14;94299.63;;;13.03;60.94
23176;BME280;19910;42.652;23.332;2023-03-26T05:27:41;94295.56;;;13.25;61.45
23176;BME280;19910;42.652;23.332;2023-03-26T05:30:12;94305.94;;;12.75;62.12
23176;BME280;19910;42.652;23.332;2023-03-26T05:32:39;94316.31;;;12.58;63.09
23176;BME280;19910;42.652;23.332;2023-03-26T05:35:07;94302.53;;;13.26;61.19
23176;BME280;19910;42.652;23.332;2023-03-26T05:37:34;94305.78;;;13.31;60.49
23176;BME280;19910;42.652;23.332;2023-03-26T05:40:04;94307.94;;;13.73;59.80
23176;BME280;19910;42.652;23.332;2023-03-26T05:42:36;94306.50;;;13.28;60.56
23176;BME280;19910;42.652;23.332;2023-03-26T05:45:03;94312.69;;;12.81;62.01
23176;BME280;19910;42.652;23.332;2023-03-26T05:47:30;94305.97;;;13.38;60.96
23176;BME280;19910;42.652;23.332;2023-03-26T05:49:57;94315.38;;;13.76;59.51
23176;BME280;19910;42.652;23.332;2023-03-26T05:52:24;94311.53;;;13.96;58.82
23176;BME280;19910;42.652;23.332;2023-03-26T05:54:51;94316.81;;;13.54;60.08
23176;BME280;19910;42.652;23.332;2023-03-26T05:57:19;94314.50;;;13.72;59.29
23176;BME280;19910;42.652;23.332;2023-03-26T05:59:46;94312.00;;;13.00;61.10
23176;BME280;19910;42.652;23.332;2023-03-26T06:02:13;94300.47;;;13.70;59.97
23176;BME280;19910;42.652;23.332;2023-03-26T06:04:40;94295.38;;;14.03;58.32
23176;BME280;19910;42.652;23.332;2023-03-26T06:07:07;94298.56;;;13.55;59.42
23176;BME280;19910;42.652;23.332;2023-03-26T06:09:34;94295.66;;;14.37;57.05
23176;BME280;19910;42.652;23.332;2023-03-26T06:12:03;94296.47;;;13.64;58.99
23176;BME280;19910;42.652;23.332;2023-03-26T06:14:31;94290.59;;;14.77;56.99
23176;BME280;19910;42.652;23.332;2023-03-26T06:16:58;94283.53;;;14.96;54.51
23176;BME280;19910;42.652;23.332;2023-03-26T06:19:25;94285.47;;;15.18;53.63
23176;BME280;19910;42.652;23.332;2023-03-26T06:21:52;94292.59;;;14.80;54.10
23176;BME280;19910;42.652;23.332;2023-03-26T06:24:19;94295.59;;;14.72;54.34
23176;BME280;19910;42.652;23.332;2023-03-26T06:26:46;94296.00;;;13.62;56.94
23176;BME280;19910;42.652;23.332;2023-03-26T06:29:13;94293.97;;;13.24;58.45
23176;BME280;19910;42.652;23.332;2023-03-26T06:31:41;94295.06;;;14.08;56.02
23176;BME280;19910;42.652;23.332;2023-03-26T06:34:08;94294.94;;;14.01;55.70
23176;BME280;19910;42.652;23.332;2023-03-26T06:36:35;94288.16;;;13.76;55.93
23176;BME280;19910;42.652;23.332;2023-03-26T06:39:03;94287.75;;;13.93;55.24
23176;BME280;19910;42.652;23.332;2023-03-26T06:41:31;94299.22;;;13.32;56.89
23176;BME280;19910;42.652;23.332;2023-03-26T06:43:58;94291.22;;;13.39;57.25
23176;BME280;19910;42.652;23.332;2023-03-26T06:46:25;94301.38;;;13.42;57.26
23176;BME280;19910;42.652;23.332;2023-03-26T06:48:53;94294.97;;;13.66;55.67
23176;BME280;19910;42.652;23.332;2023-03-26T06:51:20;94302.59;;;13.61;55.80
23176;BME280;19910;42.652;23.332;2023-03-26T06:53:47;94298.06;;;13.84;54.46
23176;BME280;19910;42.652;23.332;2023-03-26T06:56:14;94309.63;;;12.99;57.42
23176;BME280;19910;42.652;23.332;2023-03-26T06:58:41;94323.50;;;12.94;57.11
23176;BME280;19910;42.652;23.332;2023-03-26T07:01:07;94316.47;;;12.49;57.20
23176;BME280;19910;42.652;23.332;2023-03-26T07:03:34;94334.59;;;12.45;58.29
23176;BME280;19910;42.652;23.332;2023-03-26T07:06:03;94339.25;;;12.44;59.10
23176;BME280;19910;42.652;23.332;2023-03-26T07:08:30;94336.78;;;12.67;58.81
23176;BME280;19910;42.652;23.332;2023-03-26T07:10:59;94348.03;;;12.81;58.09
23176;BME280;19910;42.652;23.332;2023-03-26T07:13:26;94335.06;;;12.91;57.41
23176;BME280;19910;42.652;23.332;2023-03-26T07:15:53;94337.72;;;13.66;55.87
23176;BME280;19910;42.652;23.332;2023-03-26T07:18:19;94339.03;;;13.40;55.67
23176;BME280;19910;42.652;23.332;2023-03-26T07:20:47;94335.47;;;12.77;56.73
23176;BME280;19910;42.652;23.332;2023-03-26T07:23:15;94334.53;;;13.01;56.00
23176;BME280;19910;42.652;23.332;2023-03-26T07:25:45;94326.47;;;12.89;57.36
23176;BME280;19910;42.652;23.332;2023-03-26T07:28:19;94316.47;;;12.93;58.01
23176;BME280;19910;42.652;23.332;2023-03-26T07:31:06;94318.78;;;13.22;56.69
23176;BME280;19910;42.652;23.332;2023-03-26T07:33:38;94306.34;;;13.21;56.19
23176;BME280;19910;42.652;23.332;2023-03-26T07:36:19;94312.53;;;13.06;56.32
23176;BME280;19910;42.652;23.332;2023-03-26T07:39:03;94304.41;;;13.22;56.84
23176;BME280;19910;42.652;23.332;2023-03-26T07:41:39;94297.50;;;13.12;56.40
23176;BME280;19910;42.652;23.332;2023-03-26T07:44:24;94304.91;;;13.27;55.80
23176;BME280;19910;42.652;23.332;2023-03-26T07:46:57;94301.94;;;13.32;55.77
23176;BME280;19910;42.652;23.332;2023-03-26T07:49:26;94308.06;;;13.29;54.45
23176;BME280;19910;42.652;23.332;2023-03-26T07:51:54;94302.19;;;12.96;56.82
23176;BME280;19910;42.652;23.332;2023-03-26T07:54:23;94306.81;;;12.79;57.04
23176;BME280;19910;42.652;23.332;2023-03-26T07:56:53;94311.91;;;12.37;56.71
23176;BME280;19910;42.652;23.332;2023-03-26T07:59:27;94303.19;;;13.19;56.59
23176;BME280;19910;42.652;23.332;2023-03-26T08:02:15;94297.31;;;13.68;54.70
23176;BME280;19910;42.652;23.332;2023-03-26T08:04:53;94301.31;;;13.90;51.63
23176;BME280;19910;42.652;23.332;2023-03-26T08:07:28;94300.69;;;13.14;50.83
23176;BME280;19910;42.652;23.332;2023-03-26T08:10:05;94297.88;;;13.26;52.86
23176;BME280;19910;42.652;23.332;2023-03-26T08:12:40;94296.66;;;13.39;51.31
23176;BME280;19910;42.652;23.332;2023-03-26T08:15:17;94301.56;;;13.49;50.80
23176;BME280;19910;42.652;23.332;2023-03-26T08:17:48;94297.16;;;13.61;49.50
23176;BME280;19910;42.652;23.332;2023-03-26T08:20:26;94292.34;;;13.89;49.71
23176;BME280;19910;42.652;23.332;2023-03-26T08:23:01;94294.63;;;13.05;51.46
23176;BME280;19910;42.652;23.332;2023-03-26T08:25:47;94299.78;;;12.78;52.06
23176;BME280;19910;42.652;23.332;2023-03-26T08:28:24;94299.97;;;12.86;52.30
23176;BME280;19910;42.652;23.332;2023-03-26T08:30:57;94296.66;;;12.92;50.52
23176;BME280;19910;42.652;23.332;2023-03-26T08:33:27;94297.69;;;12.88;50.96
23176;BME280;19910;42.652;23.332;2023-03-26T08:35:55;94306.59;;;13.32;49.85
23176;BME280;19910;42.652;23.332;2023-03-26T08:38:22;94299.31;;;13.71;49.75
23176;BME280;19910;42.652;23.332;2023-03-26T08:41:11;94298.97;;;13.72;50.39
23176;BME280;19910;42.652;23.332;2023-03-26T08:44:18;94293.13;;;13.55;50.01
23176;BME280;19910;42.652;23.332;2023-03-26T08:47:15;94296.38;;;13.44;50.49
23176;BME280;19910;42.652;23.332;2023-03-26T08:56:18;94305.53;;;13.87;50.50
23176;BME280;19910;42.652;23.332;2023-03-26T08:59:13;94299.31;;;14.06;48.25
23176;BME280;19910;42.652;23.332;2023-03-26T09:02:23;94299.97;;;14.18;47.98
23176;BME280;19910;42.652;23.332;2023-03-26T09:05:25;94284.13;;;13.70;46.16
23176;BME280;19910;42.652;23.332;2023-03-26T09:08:35;94296.22;;;13.88;47.56
23176;BME280;19910;42.652;23.332;2023-03-26T09:14:46;94302.19;;;14.32;46.94
23176;BME280;19910;42.652;23.332;2023-03-26T09:17:44;94282.16;;;14.24;47.79
23176;BME280;19910;42.652;23.332;2023-03-26T09:26:28;94280.44;;;13.78;47.07
23176;BME280;19910;42.652;23.332;2023-03-26T09:29:32;94271.84;;;13.76;46.08
23176;BME280;19910;42.652;23.332;2023-03-26T09:32:38;94284.44;;;13.84;45.05
23176;BME280;19910;42.652;23.332;2023-03-26T09:35:13;94283.47;;;14.11;45.06
23176;BME280;19910;42.652;23.332;2023-03-26T09:37:55;94277.72;;;14.36;44.85
23176;BME280;19910;42.652;23.332;2023-03-26T09:40:27;94276.41;;;13.72;44.33
23176;BME280;19910;42.652;23.332;2023-03-26T09:43:21;94281.88;;;14.10;46.61
23176;BME280;19910;42.652;23.332;2023-03-26T09:46:04;94272.28;;;13.97;47.17
23176;BME280;19910;42.652;23.332;2023-03-26T09:49:31;94268.97;;;14.65;45.32
23176;BME280;19910;42.652;23.332;2023-03-26T09:52:15;94277.50;;;14.64;44.24
23176;BME280;19910;42.652;23.332;2023-03-26T09:55:03;94266.03;;;14.74;44.30
23176;BME280;19910;42.652;23.332;2023-03-26T09:57:48;94265.00;;;14.63;45.96
23176;BME280;19910;42.652;23.332;2023-03-26T10:00:27;94256.81;;;14.40;46.83
23176;BME280;19910;42.652;23.332;2023-03-26T10:03:26;94251.59;;;14.73;45.78
23176;BME280;19910;42.652;23.332;2023-03-26T10:06:04;94250.41;;;15.20;44.45
23176;BME280;19910;42.652;23.332;2023-03-26T10:08:44;94241.81;;;15.18;44.14
23176;BME280;19910;42.652;23.332;2023-03-26T10:11:17;94245.06;;;15.01;44.06
23176;BME280;19910;42.652;23.332;2023-03-26T10:14:02;94242.31;;;15.01;45.10
23176;BME280;19910;42.652;23.332;2023-03-26T10:16:40;94237.09;;;14.69;44.79
23176;BME280;19910;42.652;23.332;2023-03-26T10:19:27;94234.66;;;14.64;43.59
23176;BME280;19910;42.652;23.332;2023-03-26T10:22:01;94227.88;;;14.77;43.53
23176;BME280;19910;42.652;23.332;2023-03-26T10:27:50;94209.78;;;14.88;40.00
23176;BME280;19910;42.652;23.332;2023-03-26T10:30:42;94209.47;;;14.93;40.75
23176;BME280;19910;42.652;23.332;2023-03-26T10:33:20;94202.13;;;14.98;41.75
23176;BME280;19910;42.652;23.332;2023-03-26T10:35:58;94197.34;;;15.17;41.87
23176;BME280;19910;42.652;23.332;2023-03-26T10:38:40;94193.81;;;15.40;40.18
23176;BME280;19910;42.652;23.332;2023-03-26T10:41:16;94190.72;;;15.68;39.49
23176;BME280;19910;42.652;23.332;2023-03-26T10:44:09;94201.31;;;15.20;39.16
23176;BME280;19910;42.652;23.332;2023-03-26T10:49:59;94184.91;;;15.16;39.94
23176;BME280;19910;42.652;23.332;2023-03-26T10:52:33;94188.94;;;15.26;38.59
23176;BME280;19910;42.652;23.332;2023-03-26T10:55:10;94179.47;;;15.46;39.75
23176;BME280;19910;42.652;23.332;2023-03-26T10:57:43;94177.06;;;15.68;38.61
23176;BME280;19910;42.652;23.332;2023-03-26T11:00:17;94172.00;;;15.70;37.64
23176;BME280;19910;42.652;23.332;2023-03-26T11:03:02;94157.41;;;15.58;38.35
23176;BME280;19910;42.652;23.332;2023-03-26T11:05:45;94171.81;;;15.29;37.69
23176;BME280;19910;42.652;23.332;2023-03-26T11:08:17;94175.16;;;15.19;36.13
23176;BME280;19910;42.652;23.332;2023-03-26T11:10:52;94167.53;;;14.79;36.31
23176;BME280;19910;42.652;23.332;2023-03-26T11:13:26;94168.03;;;15.37;36.16
23176;BME280;19910;42.652;23.332;2023-03-26T11:16:02;94172.22;;;15.05;35.74
23176;BME280;19910;42.652;23.332;2023-03-26T11:18:34;94155.66;;;15.43;35.71
23176;BME280;19910;42.652;23.332;2023-03-26T11:21:07;94151.44;;;15.79;35.59
23176;BME280;19910;42.652;23.332;2023-03-26T11:23:39;94144.84;;;16.17;34.40
23176;BME280;19910;42.652;23.332;2023-03-26T11:26:15;94141.28;;;16.54;34.45
23176;BME280;19910;42.652;23.332;2023-03-26T11:28:57;94145.88;;;16.39;34.75
23176;BME280;19910;42.652;23.332;2023-03-26T11:31:33;94157.41;;;15.58;35.56
23176;BME280;19910;42.652;23.332;2023-03-26T11:34:03;94157.63;;;15.46;36.22
23176;BME280;19910;42.652;23.332;2023-03-26T11:36:36;94134.03;;;15.57;36.31
23176;BME280;19910;42.652;23.332;2023-03-26T11:39:09;94130.53;;;15.94;34.53
23176;BME280;19910;42.652;23.332;2023-03-26T11:41:39;94135.84;;;15.80;34.30
23176;BME280;19910;42.652;23.332;2023-03-26T11:44:13;94131.41;;;15.38;35.04
23176;BME280;19910;42.652;23.332;2023-03-26T11:46:45;94119.63;;;15.34;35.55
23176;BME280;19910;42.652;23.332;2023-03-26T11:49:17;94106.06;;;15.68;35.33
23176;BME280;19910;42.652;23.332;2023-03-26T11:51:46;94106.13;;;15.75;35.08
23176;BME280;19910;42.652;23.332;2023-03-26T11:54:13;94097.94;;;15.45;35.22
23176;BME280;19910;42.652;23.332;2023-03-26T11:56:45;94089.72;;;15.71;35.80
23176;BME280;19910;42.652;23.332;2023-03-26T11:59:14;94081.28;;;15.53;35.62
23176;BME280;19910;42.652;23.332;2023-03-26T12:01:49;94087.66;;;15.98;35.52
23176;BME280;19910;42.652;23.332;2023-03-26T12:04:17;94062.13;;;16.20;34.81
23176;BME280;19910;42.652;23.332;2023-03-26T12:06:53;94060.81;;;16.07;34.68
23176;BME280;19910;42.652;23.332;2023-03-26T12:09:22;94068.78;;;15.86;35.37
23176;BME280;19910;42.652;23.332;2023-03-26T12:11:52;94064.09;;;15.83;35.98
23176;BME280;19910;42.652;23.332;2023-03-26T12:14:23;94072.88;;;15.66;35.79
23176;BME280;19910;42.652;23.332;2023-03-26T12:17:02;94055.50;;;15.81;33.74
23176;BME280;19910;42.652;23.332;2023-03-26T12:19:36;94050.44;;;15.83;33.54
23176;BME280;19910;42.652;23.332;2023-03-26T12:22:05;94043.03;;;15.87;34.00
23176;BME280;19910;42.652;23.332;2023-03-26T12:24:34;94033.78;;;15.95;33.98
23176;BME280;19910;42.652;23.332;2023-03-26T12:27:20;94031.97;;;16.61;33.94
23176;BME280;19910;42.652;23.332;2023-03-26T12:29:50;94032.34;;;16.08;33.41
23176;BME280;19910;42.652;23.332;2023-03-26T12:32:19;94019.56;;;16.19;34.31
23176;BME280;19910;42.652;23.332;2023-03-26T12:34:46;94017.69;;;16.30;33.92
23176;BME280;19910;42.652;23.332;2023-03-26T12:37:34;94009.97;;;16.40;33.41
23176;BME280;19910;42.652;23.332;2023-03-26T12:40:22;94000.69;;;16.58;33.21
23176;BME280;19910;42.652;23.332;2023-03-26T12:42:54;94016.41;;;16.65;32.16
23176;BME280;19910;42.652;23.332;2023-03-26T12:45:23;94010.16;;;16.17;31.11
23176;BME280;19910;42.652;23.332;2023-03-26T12:47:55;94008.38;;;16.39;31.35
23176;BME280;19910;42.652;23.332;2023-03-26T12:50:27;93994.63;;;16.24;30.45
23176;BME280;19910;42.652;23.332;2023-03-26T12:53:07;94002.16;;;16.42;31.15
23176;BME280;19910;42.652;23.332;2023-03-26T12:55:49;94008.38;;;16.39;30.34
23176;BME280;19910;42.652;23.332;2023-03-26T12:58:43;93994.41;;;16.51;29.89
23176;BME280;19910;42.652;23.332;2023-03-26T13:01:24;93994.41;;;16.51;29.52
23176;BME280;19910;42.652;23.332;2023-03-26T13:04:16;93998.31;;;16.50;28.78
23176;BME280;19910;42.652;23.332;2023-03-26T13:06:50;93996.97;;;16.84;30.23
23176;BME280;19910;42.652;23.332;2023-03-26T13:09:48;93986.03;;;16.84;29.89
23176;BME280;19910;42.652;23.332;2023-03-26T13:12:28;93979.50;;;16.41;28.87
23176;BME280;19910;42.652;23.332;2023-03-26T13:15:08;93984.75;;;16.13;28.41
23176;BME280;19910;42.652;23.332;2023-03-26T13:17:41;93977.91;;;16.37;28.94
23176;BME280;19910;42.652;23.332;2023-03-26T13:20:16;93982.03;;;16.64;27.96
23176;BME280;19910;42.652;23.332;2023-03-26T13:22:52;93976.03;;;16.48;27.48
23176;BME280;19910;42.652;23.332;2023-03-26T13:25:30;93983.81;;;16.46;26.64
23176;BME280;19910;42.652;23.332;2023-03-26T13:28:12;93980.47;;;16.70;26.70
23176;BME280;19910;42.652;23.332;2023-03-26T13:30:48;93986.78;;;16.81;26.91
23176;BME280;19910;42.652;23.332;2023-03-26T13:33:25;93979.06;;;16.90;27.61
23176;BME280;19910;42.652;23.332;2023-03-26T13:36:00;93970.72;;;16.69;27.59
23176;BME280;19910;42.652;23.332;2023-03-26T13:38:38;93972.50;;;16.47;28.29
23176;BME280;19910;42.652;23.332;2023-03-26T13:41:14;93984.38;;;16.65;28.23
23176;BME280;19910;42.652;23.332;2023-03-26T13:43:55;93977.34;;;16.68;29.11
23176;BME280;19910;42.652;23.332;2023-03-26T13:46:33;93979.69;;;16.66;26.93
23176;BME280;19910;42.652;23.332;2023-03-26T13:49:02;93972.34;;;16.22;26.38